Hawkins, TX

7:35 PM CST on March 02, 2015 (GMT -0600)
Fouke | Change Station
CLOSE
Current Station
Personal Weather Station
Location: Hawkins, TX
Elevation: 374 ft
Nearby Weather Stations

Elev 374 ft 32.61 °N, 95.27 °W | Updated 11 minutes ago

Fog
Fog
41.5 °F
Feels Like 42 °F
N
0.0
Wind Variable Wind from SE

Today
High -- | Low -- °F
--% Chance of Precip.
Yesterday
High -- | Low -- °F
Precip. -- in
6:47 AM 6:18 PM
Waxing Gibbous, 94% visible
Pressure 30.23 in
Visibility 2.5 miles
Clouds Overcast 300 ft
Windchill 42 °F
Dew Point 40 °F
Humidity 96%
Rainfall 0.49 in
Snow Depth Not available.
UV 0 out of 12
Pollen 4.40 out of 12
Air Quality Not available.
Flu Activity Not available.
METAR KJXI 030115Z AUTO 08004KT 2 1/2SM BR OVC003 05/04 A3023 RMK AO2 T00450043

More Conditions Fewer Conditions

Pressure 30.23 in
Visibility 2.5 miles
Clouds Overcast 300 ft
Windchill 42 °F
Dew Point 40 °F
Humidity 96%
Rainfall 0.49 in
Snow Depth Not available.
UV 0 out of 12
Pollen 4.40 out of 12
Air Quality Not available.
Flu Activity Not available.
METAR KJXI 030115Z AUTO 08004KT 2 1/2SM BR OVC003 05/04 A3023 RMK AO2 T00450043

More Conditions Fewer Conditions

Nowcast | as of 6:10 PM CST on March 2, 2015

Areas of fog across the area expected to gradually thicken during the evening. Visibilities below one mile at times already...will fall to below one quarter of a mile at times by later this evening. A very light drizzle may also make roadways wet. Evening commuters should drive with extra caution...leaving headlights on low beam...and allow extra space between vehicles.

×

10-Day Weather Forecast

Almanac

Astronomy

Mar. 02, 2015 Rise Set
Actual Time
Civil Twilight
Nautical Twilight
Astronomical Twilight
Moon
Length of Visible Light
Length of Day
Tomorrow will be .
, % of the Moon is Illuminated

Today's Extremes

State Highs State Lows

Community

WunderPhotos

Upload Photos

1,802,021 photos uploaded!

WunderBlogs® & News

Nearby

Air Quality

  Air Quality AQ Index Pollutant
Not available.

Snow Depth

Station Depth Elevation

Earthquake Activity

City Distance Mag. Time & Date
Minimum magnitude displayed is 2.5.

Coastal Water Temperatures

Place Temperature

Nearby Weather Stations